createdAt,value
2022-09-25T00:00:43.859Z,80.72
2022-09-25T00:03:23.454Z,80.68
2022-09-25T00:05:53.248Z,80.64
2022-09-25T00:08:19.914Z,80.66
2022-09-25T00:10:50.802Z,80.23
2022-09-25T00:13:18.494Z,81.01
2022-09-25T00:15:49.821Z,80.98
2022-09-25T00:18:16.825Z,80.24
2022-09-25T00:20:43.924Z,81.35
2022-09-25T00:23:10.530Z,80.59
2022-09-25T00:25:37.248Z,80.45
2022-09-25T00:28:04.011Z,80.77
2022-09-25T00:30:40.092Z,80.61
2022-09-25T00:33:06.771Z,81.08
2022-09-25T00:35:33.847Z,80.54
2022-09-25T00:38:00.427Z,80.66
2022-09-25T00:40:27.048Z,80.73
2022-09-25T00:42:53.658Z,80.65
2022-09-25T00:45:20.893Z,81.23
2022-09-25T00:48:15.613Z,81.14
2022-09-25T00:50:51.810Z,81.03
2022-09-25T00:53:23.768Z,81.25
2022-09-25T00:55:50.435Z,80.76
2022-09-25T00:58:18.128Z,81.43
2022-09-25T01:00:45.342Z,81.39
2022-09-25T01:03:11.930Z,81.23
2022-09-25T01:05:40.904Z,81.73
2022-09-25T01:08:10.082Z,81.66
2022-09-25T01:10:37.004Z,81.61
2022-09-25T01:13:03.876Z,81.86
2022-09-25T01:15:43.150Z,81.98
2022-09-25T01:18:25.916Z,82.24
2022-09-25T01:21:06.886Z,81.44
2022-09-25T01:24:02.581Z,81.79
2022-09-25T01:26:35.112Z,81.79
2022-09-25T01:29:19.792Z,81.51
2022-09-25T01:32:15.333Z,81.80
2022-09-25T01:35:19.547Z,82.25
2022-09-25T01:38:00.229Z,81.82
2022-09-25T01:40:33.617Z,82.20
2022-09-25T01:43:13.035Z,82.49
2022-09-25T01:45:53.890Z,82.29
2022-09-25T01:48:23.212Z,81.51
2022-09-25T01:51:10.641Z,82.04
2022-09-25T01:53:49.094Z,82.19
2022-09-25T01:56:34.154Z,82.25
2022-09-25T01:59:14.367Z,82.41
2022-09-25T02:01:41.909Z,82.27
2022-09-25T02:04:08.861Z,82.18
2022-09-25T02:06:36.009Z,82.76
2022-09-25T02:09:06.214Z,82.86
2022-09-25T02:11:36.409Z,82.11
2022-09-25T02:14:30.315Z,82.21
2022-09-25T02:16:57.115Z,82.34
2022-09-25T02:19:42.964Z,82.61
2022-09-25T02:22:21.050Z,82.78
2022-09-25T02:24:59.365Z,83.10
2022-09-25T02:27:27.576Z,82.76
2022-09-25T02:29:54.806Z,82.81
2022-09-25T02:32:23.417Z,82.57
2022-09-25T02:34:50.056Z,82.46
2022-09-25T02:37:17.182Z,82.82
2022-09-25T02:39:50.114Z,82.78
2022-09-25T02:42:38.388Z,82.68
2022-09-25T02:45:45.399Z,83.41
2022-09-25T02:48:41.399Z,83.18
2022-09-25T02:51:40.758Z,82.75
2022-09-25T02:54:21.647Z,83.05
2022-09-25T02:56:53.252Z,83.11
2022-09-25T02:59:22.956Z,83.47
2022-09-25T03:01:49.575Z,83.25
2022-09-25T03:04:16.890Z,83.82
2022-09-25T03:06:43.536Z,83.91
2022-09-25T03:09:10.158Z,83.92
2022-09-25T03:11:40.837Z,83.67
2022-09-25T03:14:07.449Z,83.73
2022-09-25T03:16:42.045Z,83.88
2022-09-25T03:19:08.784Z,84.16
2022-09-25T03:21:35.567Z,84.62
2022-09-25T03:24:02.367Z,83.68
2022-09-25T03:26:29.825Z,83.95
2022-09-25T03:28:56.519Z,84.20
2022-09-25T03:31:25.482Z,84.52
2022-09-25T03:34:29.280Z,84.37
2022-09-25T03:36:55.835Z,84.55
2022-09-25T03:39:22.400Z,84.36
2022-09-25T03:41:49.042Z,84.62
2022-09-25T03:44:15.705Z,84.45
2022-09-25T03:46:49.329Z,84.77
2022-09-25T03:49:15.959Z,84.38
2022-09-25T03:51:42.566Z,84.54
2022-09-25T03:54:09.153Z,84.88
2022-09-25T03:56:35.778Z,84.47
2022-09-25T03:59:02.555Z,84.53
2022-09-25T04:01:29.370Z,85.16
2022-09-25T04:03:56.120Z,84.47
2022-09-25T04:06:24.640Z,84.71
2022-09-25T04:08:51.465Z,84.30
2022-09-25T04:11:18.292Z,84.67
2022-09-25T04:13:44.976Z,84.58
2022-09-25T04:16:12.077Z,84.20
2022-09-25T04:18:38.814Z,84.50
2022-09-25T04:21:06.847Z,84.46
2022-09-25T04:23:33.453Z,84.81
2022-09-25T04:26:00.262Z,84.65
2022-09-25T04:28:27.070Z,84.71
2022-09-25T04:30:53.735Z,84.93
2022-09-25T04:33:38.813Z,84.56
2022-09-25T04:36:05.744Z,84.67
2022-09-25T04:38:32.677Z,83.91
2022-09-25T04:41:00.275Z,84.94
2022-09-25T04:43:29.418Z,84.79
2022-09-25T04:45:56.258Z,85.35
2022-09-25T04:48:22.877Z,85.26
2022-09-25T04:50:51.931Z,84.72
2022-09-25T04:53:18.581Z,84.94
2022-09-25T04:55:46.382Z,85.35
2022-09-25T04:58:12.971Z,85.45
2022-09-25T05:00:40.933Z,85.20
2022-09-25T05:03:07.640Z,85.44
2022-09-25T05:05:35.315Z,85.71
2022-09-25T05:08:02.384Z,85.41
2022-09-25T05:10:31.187Z,85.56
2022-09-25T05:12:59.034Z,85.64
2022-09-25T05:15:25.946Z,85.44
2022-09-25T05:18:25.704Z,85.46
2022-09-25T05:20:56.002Z,85.34
2022-09-25T05:23:23.973Z,85.84
2022-09-25T05:26:02.311Z,85.45
2022-09-25T05:28:30.206Z,86.05
2022-09-25T05:31:01.496Z,86.63
2022-09-25T05:33:28.202Z,85.93
2022-09-25T05:35:54.793Z,86.00
2022-09-25T05:38:21.430Z,85.85
2022-09-25T05:40:48.083Z,86.08
2022-09-25T05:43:14.706Z,86.43
2022-09-25T05:45:42.459Z,86.00
2022-09-25T05:48:09.226Z,86.47
2022-09-25T05:50:36.006Z,85.97
2022-09-25T05:53:04.060Z,85.90
2022-09-25T05:55:30.689Z,86.13
2022-09-25T05:58:04.033Z,85.99
2022-09-25T06:00:32.966Z,85.81
2022-09-25T06:03:02.918Z,86.47
2022-09-25T06:05:30.042Z,86.43
2022-09-25T06:07:56.777Z,86.06
2022-09-25T06:10:26.115Z,86.08
2022-09-25T06:12:58.693Z,86.04
2022-09-25T06:15:29.298Z,86.34
2022-09-25T06:17:56.436Z,85.92
2022-09-25T06:20:23.525Z,86.36
2022-09-25T06:22:56.551Z,86.00
2022-09-25T06:25:24.002Z,86.15
2022-09-25T06:27:54.736Z,86.96
2022-09-25T06:30:22.488Z,86.32
2022-09-25T06:32:51.602Z,86.56
2022-09-25T06:35:18.327Z,86.69
2022-09-25T06:37:44.901Z,86.78
2022-09-25T06:40:11.554Z,86.71
2022-09-25T06:42:38.671Z,86.14
2022-09-25T06:45:05.565Z,85.87
2022-09-25T06:47:32.241Z,85.98
2022-09-25T06:50:00.011Z,85.96
2022-09-25T06:52:26.644Z,85.25
2022-09-25T06:54:53.441Z,85.28
2022-09-25T06:57:20.017Z,85.42
2022-09-25T06:59:46.779Z,85.40
2022-09-25T07:02:32.003Z,84.91
2022-09-25T07:05:00.130Z,84.38
2022-09-25T07:07:26.707Z,84.06
2022-09-25T07:09:53.286Z,84.19
2022-09-25T07:12:20.891Z,84.24
2022-09-25T07:15:05.195Z,84.21
2022-09-25T07:17:31.761Z,83.70
2022-09-25T07:19:58.375Z,83.08
2022-09-25T07:22:24.963Z,83.13
2022-09-25T07:24:51.553Z,82.88
2022-09-25T07:27:18.135Z,82.63
2022-09-25T07:29:44.741Z,82.49
2022-09-25T07:32:11.687Z,82.58
2022-09-25T07:34:38.335Z,82.39
2022-09-25T07:37:05.010Z,82.87
2022-09-25T07:39:31.592Z,82.55
2022-09-25T07:41:58.552Z,82.33
2022-09-25T07:44:29.201Z,82.39
2022-09-25T07:46:58.165Z,82.13
2022-09-25T07:49:24.877Z,82.49
2022-09-25T07:51:52.155Z,82.53
2022-09-25T07:54:18.886Z,82.35
2022-09-25T07:56:45.509Z,82.18
2022-09-25T07:59:12.066Z,81.97
2022-09-25T08:01:43.971Z,82.16
2022-09-25T08:04:12.331Z,82.12
2022-09-25T08:06:39.086Z,82.42
2022-09-25T08:09:10.140Z,82.54
2022-09-25T08:11:37.522Z,82.38
2022-09-25T08:14:04.138Z,82.19
2022-09-25T08:16:30.728Z,82.35
2022-09-25T08:18:57.393Z,81.85
2022-09-25T08:21:24.702Z,81.83
2022-09-25T08:23:52.871Z,82.30
2022-09-25T08:26:21.046Z,82.50
2022-09-25T08:28:47.609Z,82.20
2022-09-25T08:31:14.880Z,80.73
2022-09-25T08:33:48.752Z,79.50
2022-09-25T08:36:16.240Z,78.48
2022-09-25T08:38:42.951Z,78.08
2022-09-25T08:41:24.525Z,76.81
2022-09-25T08:44:28.701Z,75.17
2022-09-25T08:47:33.232Z,74.84
2022-09-25T08:50:10.820Z,74.50
2022-09-25T08:52:37.916Z,74.41
2022-09-25T08:55:08.537Z,74.32
2022-09-25T08:57:38.028Z,73.88
2022-09-25T09:00:24.234Z,74.31
2022-09-25T09:02:54.280Z,74.62
2022-09-25T09:05:25.171Z,74.73
2022-09-25T09:08:10.075Z,74.26
2022-09-25T09:10:46.355Z,74.63
2022-09-25T09:13:28.953Z,74.89
2022-09-25T09:16:02.916Z,75.89
2022-09-25T09:18:31.237Z,76.07
2022-09-25T09:21:19.021Z,76.09
2022-09-25T09:23:45.551Z,76.00
2022-09-25T09:26:16.508Z,76.46
2022-09-25T09:28:55.351Z,76.80
2022-09-25T09:31:41.684Z,77.69
2022-09-25T09:35:04.207Z,77.77
2022-09-25T09:38:10.693Z,77.91
2022-09-25T09:41:23.703Z,78.13
2022-09-25T09:44:14.463Z,78.37
2022-09-25T09:46:41.137Z,78.69
2022-09-25T09:49:33.732Z,79.00
2022-09-25T09:52:10.268Z,79.37
2022-09-25T09:54:39.162Z,79.47
2022-09-25T09:57:19.225Z,79.30
2022-09-25T10:00:06.687Z,79.62
2022-09-25T10:02:51.857Z,79.42
2022-09-25T10:05:32.375Z,79.90
2022-09-25T10:07:59.055Z,80.45
2022-09-25T10:10:37.334Z,80.59
2022-09-25T10:13:06.889Z,80.58
2022-09-25T10:15:36.638Z,79.99
2022-09-25T10:18:03.532Z,79.96
2022-09-25T10:20:49.682Z,79.37
2022-09-25T10:23:52.782Z,78.00
2022-09-25T10:26:25.356Z,76.16
2022-09-25T10:28:52.046Z,76.01
2022-09-25T10:31:19.242Z,74.11
2022-09-25T10:34:01.881Z,73.61
2022-09-25T10:36:54.434Z,71.83
2022-09-25T10:39:49.548Z,71.97
2022-09-25T10:42:34.704Z,71.91
2022-09-25T10:45:06.888Z,72.32
2022-09-25T10:47:51.749Z,71.67
2022-09-25T10:50:21.414Z,71.69
2022-09-25T10:52:52.322Z,70.97
2022-09-25T10:55:28.767Z,70.12
2022-09-25T10:58:10.602Z,70.02
2022-09-25T11:00:53.251Z,70.96
2022-09-25T11:03:23.725Z,70.43
2022-09-25T11:06:21.063Z,70.14
2022-09-25T11:08:54.828Z,70.17
2022-09-25T11:11:27.443Z,70.48
2022-09-25T11:13:55.705Z,70.35
2022-09-25T11:16:22.754Z,70.44
2022-09-25T11:18:51.219Z,69.68
2022-09-25T11:21:23.830Z,69.68
2022-09-25T11:24:04.711Z,69.99
2022-09-25T11:26:34.358Z,69.84
2022-09-25T11:29:09.409Z,70.50
2022-09-25T11:31:37.462Z,70.65
2022-09-25T11:34:32.774Z,70.18
2022-09-25T11:37:24.694Z,70.08
2022-09-25T11:40:21.796Z,70.06
2022-09-25T11:42:58.583Z,70.09
2022-09-25T11:45:36.804Z,70.85
2022-09-25T11:48:21.205Z,70.44
2022-09-25T11:51:23.023Z,67.49
2022-09-25T11:54:12.406Z,67.82
2022-09-25T11:57:01.507Z,67.00
2022-09-25T11:59:38.542Z,66.65
2022-09-25T12:02:15.968Z,65.40
2022-09-25T12:05:00.914Z,65.46
2022-09-25T12:07:45.726Z,65.53
2022-09-25T12:10:19.252Z,65.03
2022-09-25T12:13:05.208Z,66.01
2022-09-25T12:15:56.550Z,65.50
2022-09-25T12:18:38.379Z,66.39
2022-09-25T12:21:21.054Z,66.93
2022-09-25T12:24:08.442Z,65.98
2022-09-25T12:26:58.395Z,66.35
2022-09-25T12:29:45.259Z,67.34
2022-09-25T12:32:29.782Z,67.70
2022-09-25T12:34:59.272Z,67.01
2022-09-25T12:37:38.357Z,67.35
2022-09-25T12:40:11.779Z,67.71
2022-09-25T12:42:54.302Z,66.45
2022-09-25T12:45:39.193Z,66.18
2022-09-25T12:48:50.509Z,66.62
2022-09-25T12:51:41.714Z,65.93
2022-09-25T12:54:30.505Z,65.53
2022-09-25T12:56:57.879Z,65.09
2022-09-25T12:59:46.031Z,65.45
2022-09-25T13:02:43.733Z,65.95
2022-09-25T13:05:21.838Z,66.51
2022-09-25T13:08:28.825Z,67.00
2022-09-25T13:11:20.747Z,67.45
2022-09-25T13:13:50.619Z,67.17
2022-09-25T13:16:17.251Z,66.73
2022-09-25T13:18:50.816Z,67.60
2022-09-25T13:21:43.791Z,67.64
2022-09-25T13:24:13.571Z,67.58
2022-09-25T13:26:47.925Z,68.03
2022-09-25T13:29:28.023Z,67.43
2022-09-25T13:32:16.837Z,67.41
2022-09-25T13:34:43.596Z,67.77
2022-09-25T13:37:11.444Z,67.67
2022-09-25T13:40:01.163Z,67.19
2022-09-25T13:42:30.582Z,66.82
2022-09-25T13:45:35.185Z,67.03
2022-09-25T13:48:08.838Z,67.14
2022-09-25T13:50:36.466Z,67.78
2022-09-25T13:53:24.926Z,68.11
2022-09-25T13:55:58.890Z,68.37
2022-09-25T13:58:26.534Z,68.13
2022-09-25T14:00:56.431Z,68.04
2022-09-25T14:03:41.610Z,68.34
2022-09-25T14:06:29.967Z,68.09
2022-09-25T14:08:57.438Z,68.42
2022-09-25T14:11:27.778Z,69.21
2022-09-25T14:13:56.863Z,68.77
2022-09-25T14:16:28.154Z,69.20
2022-09-25T14:18:58.845Z,69.65
2022-09-25T14:21:26.541Z,69.28
2022-09-25T14:23:54.882Z,68.82
2022-09-25T14:26:23.082Z,68.54
2022-09-25T14:28:50.450Z,68.48
2022-09-25T14:31:32.653Z,68.99
2022-09-25T14:34:17.578Z,69.14
2022-09-25T14:36:54.250Z,68.33
2022-09-25T14:39:43.062Z,68.98
2022-09-25T14:42:25.136Z,69.40
2022-09-25T14:44:57.686Z,67.94
2022-09-25T14:47:24.704Z,67.86
2022-09-25T14:49:51.667Z,67.84
2022-09-25T14:52:24.172Z,68.14
2022-09-25T14:54:51.585Z,68.09
2022-09-25T14:57:25.204Z,68.37
2022-09-25T14:59:54.806Z,67.86
2022-09-25T15:02:26.942Z,68.51
2022-09-25T15:04:57.833Z,68.08
2022-09-25T15:07:25.098Z,68.42
2022-09-25T15:09:55.389Z,68.59
2022-09-25T15:12:30.895Z,68.92
2022-09-25T15:15:16.832Z,69.25
2022-09-25T15:17:51.853Z,69.29
2022-09-25T15:20:23.602Z,69.40
2022-09-25T15:23:04.532Z,69.30
2022-09-25T15:25:37.566Z,69.81
2022-09-25T15:28:14.074Z,70.16
2022-09-25T15:30:42.233Z,69.84
2022-09-25T15:33:23.223Z,70.09
2022-09-25T15:36:00.822Z,70.17
2022-09-25T15:38:31.880Z,70.47
2022-09-25T15:40:58.793Z,70.64
2022-09-25T15:43:25.518Z,70.62
2022-09-25T15:46:07.348Z,70.48
2022-09-25T15:48:51.793Z,70.24
2022-09-25T15:51:20.568Z,70.52
2022-09-25T15:54:05.051Z,71.26
2022-09-25T15:56:53.297Z,71.02
2022-09-25T15:59:58.092Z,71.10
2022-09-25T16:02:45.695Z,71.80
2022-09-25T16:05:16.407Z,72.30
2022-09-25T16:07:43.018Z,72.46
2022-09-25T16:10:09.637Z,72.66
2022-09-25T16:12:46.034Z,72.29
2022-09-25T16:15:26.473Z,72.44
2022-09-25T16:18:05.420Z,72.84
2022-09-25T16:20:39.137Z,72.95
2022-09-25T16:24:03.744Z,73.23
2022-09-25T16:26:39.762Z,73.59
2022-09-25T16:29:08.606Z,72.81
2022-09-25T16:31:36.551Z,73.14
2022-09-25T16:34:03.237Z,73.48
2022-09-25T16:36:40.709Z,73.53
2022-09-25T16:39:07.167Z,73.63
2022-09-25T16:41:35.951Z,73.01
2022-09-25T16:44:21.756Z,73.52
2022-09-25T16:46:52.160Z,73.91
2022-09-25T16:49:20.025Z,73.88
2022-09-25T16:51:46.670Z,74.16
2022-09-25T16:54:15.360Z,74.64
2022-09-25T16:56:43.193Z,74.94
2022-09-25T16:59:16.382Z,75.14
2022-09-25T17:01:43.289Z,75.42
2022-09-25T17:04:11.766Z,75.60
2022-09-25T17:06:40.982Z,75.51
2022-09-25T17:09:12.357Z,75.71
2022-09-25T17:11:39.491Z,75.95
2022-09-25T17:14:09.635Z,76.52
2022-09-25T17:16:36.258Z,76.11
2022-09-25T17:19:02.854Z,76.58
2022-09-25T17:21:29.465Z,76.89
2022-09-25T17:23:56.064Z,76.57
2022-09-25T17:26:23.579Z,77.12
2022-09-25T17:28:51.253Z,77.12
2022-09-25T17:31:20.182Z,77.29
2022-09-25T17:33:50.214Z,77.52
2022-09-25T17:36:16.897Z,78.06
2022-09-25T17:38:43.756Z,78.28
2022-09-25T17:41:17.881Z,77.91
2022-09-25T17:43:44.767Z,78.36
2022-09-25T17:46:11.397Z,78.10
2022-09-25T17:48:38.056Z,78.93
2022-09-25T17:51:12.196Z,79.03
2022-09-25T17:53:38.909Z,79.16
2022-09-25T17:56:06.902Z,79.31
2022-09-25T17:58:33.490Z,79.20
2022-09-25T18:01:00.778Z,79.53
2022-09-25T18:03:28.481Z,79.57
2022-09-25T18:05:55.365Z,79.82
2022-09-25T18:08:22.064Z,79.54
2022-09-25T18:10:51.368Z,80.05
2022-09-25T18:13:20.870Z,80.03
2022-09-25T18:15:55.469Z,80.04
2022-09-25T18:18:22.282Z,79.93
2022-09-25T18:21:09.578Z,79.92
2022-09-25T18:23:38.907Z,80.50
2022-09-25T18:26:07.252Z,79.92
2022-09-25T18:28:33.908Z,80.43
2022-09-25T18:31:00.593Z,80.51
2022-09-25T18:33:27.327Z,80.70
2022-09-25T18:35:54.062Z,81.03
2022-09-25T18:38:20.623Z,81.11
2022-09-25T18:40:47.220Z,80.98
2022-09-25T18:43:13.850Z,81.25
2022-09-25T18:45:42.176Z,80.87
2022-09-25T18:48:08.815Z,82.05
2022-09-25T18:50:35.412Z,81.84
2022-09-25T18:53:02.051Z,81.50
2022-09-25T18:55:29.767Z,81.33
2022-09-25T18:57:57.374Z,82.00
2022-09-25T19:00:24.014Z,82.43
2022-09-25T19:02:50.795Z,82.21
2022-09-25T19:05:17.632Z,82.35
2022-09-25T19:07:44.283Z,82.39
2022-09-25T19:10:11.136Z,82.59
2022-09-25T19:12:37.697Z,82.73
2022-09-25T19:15:04.870Z,82.42
2022-09-25T19:17:31.628Z,82.61
2022-09-25T19:19:58.194Z,82.57
2022-09-25T19:22:24.823Z,82.95
2022-09-25T19:24:52.816Z,83.17
2022-09-25T19:27:19.598Z,83.81
2022-09-25T19:29:46.578Z,83.95
2022-09-25T19:32:14.561Z,83.89
2022-09-25T19:34:41.714Z,84.04
2022-09-25T19:37:08.271Z,83.87
2022-09-25T19:39:53.294Z,83.90
2022-09-25T19:42:20.328Z,83.77
2022-09-25T19:44:47.268Z,83.58
2022-09-25T19:47:13.929Z,83.70
2022-09-25T19:49:40.559Z,83.83
2022-09-25T19:52:07.245Z,83.70
2022-09-25T19:54:34.299Z,83.51
2022-09-25T19:57:00.900Z,83.80
2022-09-25T19:59:27.604Z,83.42
2022-09-25T20:01:54.430Z,83.59
2022-09-25T20:04:21.067Z,83.13
2022-09-25T20:06:48.580Z,82.94
2022-09-25T20:09:15.456Z,83.31
2022-09-25T20:11:42.293Z,83.12
2022-09-25T20:14:08.862Z,83.11
2022-09-25T20:16:37.392Z,82.77
2022-09-25T20:19:05.132Z,83.02
2022-09-25T20:21:36.245Z,83.03
2022-09-25T20:24:04.323Z,83.12
2022-09-25T20:26:30.987Z,83.00
2022-09-25T20:28:59.210Z,83.09
2022-09-25T20:31:26.356Z,82.68
2022-09-25T20:33:53.078Z,82.81
2022-09-25T20:36:19.674Z,82.92
2022-09-25T20:38:50.353Z,83.19
2022-09-25T20:41:16.937Z,83.00
2022-09-25T20:43:44.349Z,83.22
2022-09-25T20:46:12.722Z,83.60
2022-09-25T20:48:41.540Z,83.28
2022-09-25T20:51:09.898Z,83.57
2022-09-25T20:53:37.052Z,83.37
2022-09-25T20:56:07.474Z,83.46
2022-09-25T20:58:34.823Z,83.55
2022-09-25T21:01:05.781Z,83.68
2022-09-25T21:03:33.053Z,83.72
2022-09-25T21:06:01.741Z,83.68
2022-09-25T21:08:29.633Z,83.67
2022-09-25T21:10:56.716Z,84.50
2022-09-25T21:13:23.427Z,84.11
2022-09-25T21:15:50.047Z,84.05
2022-09-25T21:18:16.701Z,84.37
2022-09-25T21:20:50.177Z,84.29
2022-09-25T21:23:17.026Z,84.30
2022-09-25T21:25:43.665Z,84.28
2022-09-25T21:28:10.328Z,84.40
2022-09-25T21:30:39.247Z,83.97
2022-09-25T21:33:06.169Z,84.03
2022-09-25T21:35:33.046Z,84.23
2022-09-25T21:37:59.689Z,84.38
2022-09-25T21:40:26.542Z,83.99
2022-09-25T21:42:53.142Z,84.05
2022-09-25T21:45:19.702Z,84.19
2022-09-25T21:47:49.643Z,84.68
2022-09-25T21:50:16.336Z,84.29
2022-09-25T21:52:42.935Z,84.06
2022-09-25T21:55:10.148Z,84.41
2022-09-25T21:57:36.765Z,83.82
2022-09-25T22:00:04.667Z,84.26
2022-09-25T22:02:39.900Z,84.00
2022-09-25T22:05:06.744Z,84.42
2022-09-25T22:07:33.887Z,84.27
2022-09-25T22:10:00.529Z,84.04
2022-09-25T22:12:27.096Z,83.94
2022-09-25T22:15:09.587Z,84.11
2022-09-25T22:17:36.124Z,83.47
2022-09-25T22:20:05.329Z,83.86
2022-09-25T22:22:32.369Z,84.23
2022-09-25T22:24:58.923Z,84.46
2022-09-25T22:27:25.527Z,85.03
2022-09-25T22:29:52.111Z,84.64
2022-09-25T22:32:18.667Z,84.49
2022-09-25T22:34:45.237Z,84.81
2022-09-25T22:37:11.799Z,84.56
2022-09-25T22:39:38.572Z,85.60
2022-09-25T22:42:05.145Z,85.79
2022-09-25T22:44:31.741Z,85.71
2022-09-25T22:47:01.385Z,85.60
2022-09-25T22:49:41.558Z,85.94
2022-09-25T22:52:08.115Z,85.93
2022-09-25T22:54:34.689Z,85.23
2022-09-25T22:57:01.276Z,85.60
2022-09-25T22:59:27.969Z,85.47
2022-09-25T23:01:54.813Z,85.67
2022-09-25T23:04:22.884Z,85.23
2022-09-25T23:06:49.729Z,85.69
2022-09-25T23:09:18.423Z,85.35
2022-09-25T23:11:45.613Z,85.72
2022-09-25T23:14:20.012Z,85.95
2022-09-25T23:16:47.740Z,85.63
2022-09-25T23:19:14.894Z,85.67
2022-09-25T23:21:41.674Z,85.61
2022-09-25T23:24:10.843Z,85.80
2022-09-25T23:26:37.404Z,85.92
2022-09-25T23:29:04.066Z,85.64
2022-09-25T23:31:31.216Z,86.05
2022-09-25T23:34:01.498Z,85.94
2022-09-25T23:36:28.286Z,85.81
2022-09-25T23:38:55.496Z,85.92
2022-09-25T23:41:28.148Z,85.84
2022-09-25T23:43:55.066Z,86.26
2022-09-25T23:46:22.730Z,86.25
2022-09-25T23:48:49.877Z,86.59
2022-09-25T23:51:16.692Z,86.65
2022-09-25T23:53:43.401Z,86.62
2022-09-25T23:56:12.646Z,85.87
2022-09-25T23:58:39.628Z,86.16
